Time;durP1;ratioP1;P1;durP2;ratioP2;P2;SDS_P1;SDS_P2;PMS_P1;PMS_P2;Temp;Humidity;BMP_temperature;BMP_pressure;BME280_temperature;BME280_humidity;BME280_pressure;Samples;Min_cycle;Max_cycle;Signal;HPM_P1;HPM_P2
2021/10/19 00:01:03;;;;;;;12.80;10.20;;;;;;;9.00;82.74;101355.27;88778;1275;94540;-64
2021/10/19 00:03:10;;;;;;;29.60;21.30;;;;;;;8.98;82.71;101357.68;88886;1275;77032;-63
2021/10/19 00:05:21;;;;;;;62.00;46.00;;;;;;;8.95;82.79;101357.25;88852;1275;81322;-62
2021/10/19 00:07:28;;;;;;;14.70;10.40;;;;;;;8.90;82.83;101360.08;88899;1274;98900;-66
2021/10/19 00:09:36;;;;;;;15.40;10.00;;;;;;;8.83;82.70;101364.52;88859;1275;88193;-66
2021/10/19 00:11:43;;;;;;;14.00;8.80;;;;;;;8.78;82.80;101366.70;88786;1278;94745;-63
2021/10/19 00:13:53;;;;;;;12.70;8.50;;;;;;;8.74;82.83;101363.64;88814;1275;79888;-64
2021/10/19 00:16:01;;;;;;;13.10;9.20;;;;;;;8.76;82.82;101365.63;88790;1275;81725;-66
2021/10/19 00:18:08;;;;;;;12.50;8.60;;;;;;;8.83;82.87;101367.09;88945;1275;97226;-68
2021/10/19 00:20:17;;;;;;;14.90;8.60;;;;;;;8.86;82.77;101370.35;88833;1275;86042;-67
2021/10/19 00:22:25;;;;;;;14.10;9.00;;;;;;;8.86;82.80;101367.66;88908;1274;93841;-62
2021/10/19 00:24:33;;;;;;;10.90;8.60;;;;;;;8.84;82.78;101368.75;88805;1275;80993;-64
2021/10/19 00:26:40;;;;;;;10.80;8.50;;;;;;;8.84;82.78;101369.27;88883;1275;80916;-68
2021/10/19 00:28:47;;;;;;;11.30;8.70;;;;;;;8.83;82.77;101368.17;88887;1275;97777;-70
2021/10/19 00:30:58;;;;;;;12.90;9.50;;;;;;;8.83;82.87;101367.79;88838;1275;87253;-68
2021/10/19 00:33:05;;;;;;;11.40;8.70;;;;;;;8.82;82.82;101370.61;88821;1275;94150;-69
2021/10/19 00:35:13;;;;;;;13.20;9.40;;;;;;;8.76;82.88;101367.65;88815;1275;81928;-70
2021/10/19 00:37:20;;;;;;;12.30;9.60;;;;;;;8.73;82.97;101369.58;88903;1275;82453;-69
2021/10/19 00:39:28;;;;;;;12.10;9.40;;;;;;;8.69;83.02;101366.73;88825;1275;99688;-68
2021/10/19 00:41:35;;;;;;;12.50;10.20;;;;;;;8.67;82.96;101364.58;88823;1275;88864;-66
2021/10/19 00:43:43;;;;;;;14.90;9.90;;;;;;;8.70;82.99;101366.25;88828;1275;94205;-68
2021/10/19 00:45:52;;;;;;;13.10;9.60;;;;;;;8.70;83.06;101366.09;88876;1274;79445;-70
2021/10/19 00:48:05;;;;;;;14.80;10.60;;;;;;;8.70;83.01;101368.54;88809;1274;79775;-66
2021/10/19 00:50:13;;;;;;;10.90;8.70;;;;;;;8.67;83.09;101370.46;88820;1275;99966;-68
2021/10/19 00:52:21;;;;;;;10.40;8.10;;;;;;;8.59;83.14;101367.33;88904;1275;87403;-64
2021/10/19 00:54:28;;;;;;;13.70;9.60;;;;;;;8.54;83.29;101365.74;88909;1275;94395;-64
2021/10/19 00:56:39;;;;;;;12.20;9.30;;;;;;;8.58;83.21;101366.02;88879;1274;79754;-66
2021/10/19 00:58:47;;;;;;;12.20;9.30;;;;;;;8.55;83.40;101364.69;88825;1275;81203;-67
2021/10/19 01:01:01;;;;;;;15.00;10.10;;;;;;;8.53;83.37;101367.39;88882;1274;97788;-63
2021/10/19 01:03:08;;;;;;;13.70;10.40;;;;;;;8.56;83.32;101367.90;88815;1275;87145;-62
2021/10/19 01:05:16;;;;;;;14.00;10.40;;;;;;;8.55;83.43;101364.68;88818;1275;93914;-62
2021/10/19 01:07:24;;;;;;;14.90;10.60;;;;;;;8.57;83.35;101366.19;88861;1275;77309;-66
2021/10/19 01:09:32;;;;;;;14.50;11.00;;;;;;;8.58;83.53;101366.17;88824;1269;81180;-67
2021/10/19 01:11:40;;;;;;;15.40;11.90;;;;;;;8.59;83.39;101370.79;88862;1275;98234;-62
2021/10/19 01:13:48;;;;;;;17.30;12.70;;;;;;;8.56;83.48;101368.03;88864;1274;88516;-63
2021/10/19 01:16:09;;;;;;;14.60;11.20;;;;;;;8.58;83.47;101370.17;88818;1275;94068;-64
2021/10/19 01:18:19;;;;;;;14.70;11.70;;;;;;;8.63;83.38;101370.02;88931;1273;78484;-67
2021/10/19 01:20:29;;;;;;;18.70;11.80;;;;;;;8.64;83.44;101366.20;88859;1274;83401;-67
2021/10/19 01:22:39;;;;;;;15.70;12.20;;;;;;;8.67;83.39;101365.17;88859;1275;99227;-63
2021/10/19 01:24:47;;;;;;;14.80;11.60;;;;;;;8.70;83.38;101359.95;88814;1275;88604;-63
2021/10/19 01:26:55;;;;;;;13.20;10.20;;;;;;;8.67;83.63;101362.59;88914;1275;94887;-63
2021/10/19 01:29:02;;;;;;;14.70;10.00;;;;;;;8.65;83.49;101357.11;88829;1275;78762;-62
2021/10/19 01:31:11;;;;;;;10.40;8.70;;;;;;;8.63;83.61;101356.16;88850;1275;82280;-66
2021/10/19 01:33:19;;;;;;;12.90;8.60;;;;;;;8.57;83.56;101353.06;88884;1274;98610;-67
2021/10/19 01:35:37;;;;;;;11.60;7.60;;;;;;;8.54;83.67;101353.94;88839;1275;88243;-72
2021/10/19 01:37:46;;;;;;;11.00;6.70;;;;;;;8.53;83.53;101354.66;88838;1275;92697;-68
2021/10/19 01:39:53;;;;;;;9.80;7.00;;;;;;;8.49;83.64;101352.03;88923;1275;81280;-68
2021/10/19 01:42:01;;;;;;;8.90;6.70;;;;;;;8.45;83.55;101352.84;88862;1275;81748;-70
2021/10/19 01:44:09;;;;;;;11.50;6.10;;;;;;;8.46;83.58;101348.80;88828;1275;99534;-67
2021/10/19 01:46:16;;;;;;;8.80;6.20;;;;;;;8.35;84.19;101347.72;88822;1274;88193;-64
2021/10/19 01:48:24;;;;;;;9.20;5.70;;;;;;;8.34;83.79;101343.15;88845;1275;93754;-64
2021/10/19 01:50:31;;;;;;;8.10;5.30;;;;;;;8.37;83.69;101338.04;88895;1275;82156;-63
2021/10/19 01:52:40;;;;;;;8.90;5.70;;;;;;;8.34;83.91;101337.91;88949;1275;80408;-67
2021/10/19 01:54:47;;;;;;;8.30;5.80;;;;;;;8.27;83.89;101338.80;88893;1275;99421;-68
2021/10/19 01:56:54;;;;;;;8.90;6.90;;;;;;;8.26;83.98;101336.93;88922;1274;88051;-66
2021/10/19 01:59:02;;;;;;;10.50;6.90;;;;;;;8.21;84.05;101336.66;88844;1274;94629;-66
2021/10/19 02:01:09;;;;;;;8.80;6.30;;;;;;;8.22;83.94;101333.37;88793;1275;81424;-62
2021/10/19 02:03:17;;;;;;;10.80;6.10;;;;;;;8.18;84.08;101333.25;88834;1274;82413;-61
2021/10/19 02:05:24;;;;;;;9.10;6.70;;;;;;;8.13;84.20;101333.55;88846;1275;97841;-62
2021/10/19 02:07:35;;;;;;;10.40;5.90;;;;;;;8.18;84.13;101334.90;88881;1275;87816;-61
2021/10/19 02:09:42;;;;;;;8.80;5.70;;;;;;;8.15;84.13;101335.45;88849;1275;92555;-61
2021/10/19 02:11:54;;;;;;;9.30;6.30;;;;;;;8.17;84.12;101334.06;88905;1275;79668;-67
2021/10/19 02:14:01;;;;;;;8.40;6.20;;;;;;;8.21;84.06;101334.00;88882;1275;81987;-66
2021/10/19 02:16:09;;;;;;;9.60;5.80;;;;;;;8.23;84.05;101335.71;88848;1275;97541;-63
2021/10/19 02:18:16;;;;;;;9.60;6.10;;;;;;;8.16;84.21;101339.54;88899;1274;88891;-63
2021/10/19 02:20:28;;;;;;;9.50;6.50;;;;;;;8.13;84.24;101343.36;88865;1275;94001;-61
2021/10/19 02:22:36;;;;;;;10.00;6.00;;;;;;;8.14;84.14;101343.87;88902;1275;81530;-63
2021/10/19 02:24:43;;;;;;;8.50;6.20;;;;;;;8.14;84.21;101344.09;88863;1275;81248;-62
2021/10/19 02:26:52;;;;;;;8.40;5.40;;;;;;;8.20;84.15;101344.35;88863;1275;97076;-63
2021/10/19 02:28:59;;;;;;;10.00;6.90;;;;;;;8.21;84.13;101346.89;88833;1275;88765;-63
2021/10/19 02:31:07;;;;;;;10.70;7.40;;;;;;;8.23;84.13;101349.18;88803;1275;94536;-63
2021/10/19 02:33:14;;;;;;;8.90;6.50;;;;;;;8.20;84.22;101348.85;88914;1275;82983;-63
2021/10/19 02:35:25;;;;;;;9.60;6.90;;;;;;;8.20;84.32;101350.55;88859;1275;81076;-64
2021/10/19 02:37:36;;;;;;;11.10;6.80;;;;;;;8.20;84.34;101350.60;88909;1275;97918;-65
2021/10/19 02:39:44;;;;;;;10.90;7.50;;;;;;;8.14;84.34;101349.05;88841;1275;88395;-66
2021/10/19 02:41:51;;;;;;;10.70;6.80;;;;;;;8.13;84.29;101349.35;88862;1275;94384;-63
2021/10/19 02:43:59;;;;;;;10.50;6.80;;;;;;;8.17;84.32;101354.64;88820;1275;81040;-62
2021/10/19 02:46:06;;;;;;;12.00;6.90;;;;;;;8.12;84.44;101360.17;88825;1275;79733;-65
2021/10/19 02:48:14;;;;;;;9.30;7.20;;;;;;;8.12;84.34;101363.23;88825;1274;100416;-67
2021/10/19 02:50:24;;;;;;;11.80;6.80;;;;;;;8.14;84.52;101361.30;88827;1274;88306;-66
2021/10/19 02:52:32;;;;;;;13.60;7.50;;;;;;;8.11;84.35;101365.90;88836;1275;93793;-63
2021/10/19 02:54:39;;;;;;;9.90;7.20;;;;;;;8.12;84.36;101367.34;88821;1275;81348;-63
2021/10/19 02:56:47;;;;;;;10.80;7.00;;;;;;;8.15;84.30;101368.71;88885;1275;81511;-63
2021/10/19 02:58:54;;;;;;;11.10;7.40;;;;;;;8.09;84.55;101368.55;88906;1275;99925;-64
2021/10/19 03:01:01;;;;;;;11.50;7.20;;;;;;;8.10;84.50;101366.13;88856;1275;87603;-63
2021/10/19 03:03:09;;;;;;;8.70;6.60;;;;;;;8.15;84.46;101365.64;88636;1278;95683;-63
2021/10/19 03:05:16;;;;;;;11.60;6.70;;;;;;;8.15;84.42;101366.87;88672;1278;79666;-63
2021/10/19 03:07:24;;;;;;;11.20;7.40;;;;;;;8.17;84.51;101364.85;88763;1276;81266;-66
2021/10/19 03:09:31;;;;;;;11.00;7.30;;;;;;;8.16;84.65;101362.46;88674;1277;99532;-64
2021/10/19 03:11:43;;;;;;;10.90;6.90;;;;;;;8.07;84.74;101363.58;88748;1277;87350;-65
2021/10/19 03:13:51;;;;;;;11.90;6.50;;;;;;;8.10;84.42;101361.11;88685;1278;94704;-65
2021/10/19 03:15:58;;;;;;;8.70;6.30;;;;;;;8.12;84.51;101363.29;88680;1278;80338;-63
2021/10/19 03:18:06;;;;;;;9.60;6.00;;;;;;;8.13;84.55;101363.85;88672;1278;82950;-62
2021/10/19 03:20:14;;;;;;;11.60;7.70;;;;;;;8.08;84.70;101360.66;88685;1278;97510;-63
2021/10/19 03:22:21;;;;;;;10.50;7.10;;;;;;;8.07;84.70;101357.32;88666;1277;88079;-63
2021/10/19 03:24:29;;;;;;;10.20;7.00;;;;;;;8.08;84.65;101356.65;88632;1277;93945;-63
2021/10/19 03:26:39;;;;;;;10.20;6.40;;;;;;;8.13;84.49;101353.48;88641;1277;80651;-63
2021/10/19 03:28:47;;;;;;;12.00;6.90;;;;;;;8.17;84.47;101353.91;88710;1276;82335;-63
2021/10/19 03:31:03;;;;;;;10.30;7.30;;;;;;;8.21;84.56;101352.61;88659;1278;98436;-63
2021/10/19 03:33:14;;;;;;;9.50;6.80;;;;;;;8.17;84.55;101351.98;88641;1276;86573;-65
2021/10/19 03:35:21;;;;;;;11.70;7.50;;;;;;;8.16;84.53;101349.22;88626;1278;94890;-66
2021/10/19 03:37:29;;;;;;;10.70;6.80;;;;;;;8.15;84.65;101349.70;88761;1278;80142;-63
2021/10/19 03:39:39;;;;;;;11.40;6.90;;;;;;;8.17;84.51;101348.78;88687;1278;81432;-63
2021/10/19 03:41:47;;;;;;;12.50;7.20;;;;;;;8.16;84.68;101345.86;88700;1278;99292;-62
2021/10/19 03:43:54;;;;;;;10.20;6.80;;;;;;;8.18;84.66;101346.83;88771;1277;87974;-62
2021/10/19 03:46:02;;;;;;;10.30;7.70;;;;;;;8.22;84.52;101344.27;88668;1275;94755;-62
2021/10/19 03:48:09;;;;;;;12.70;7.40;;;;;;;8.27;84.56;101345.60;88761;1276;80038;-62
2021/10/19 03:50:17;;;;;;;11.50;7.60;;;;;;;8.28;84.54;101343.88;88681;1277;80672;-62
2021/10/19 03:52:24;;;;;;;11.10;7.60;;;;;;;8.28;84.52;101341.78;88733;1277;97732;-63
2021/10/19 03:54:32;;;;;;;9.50;7.50;;;;;;;8.22;84.81;101341.77;88680;1277;87818;-63
2021/10/19 03:56:39;;;;;;;11.40;7.40;;;;;;;8.20;84.77;101341.80;88722;1278;92946;-68
2021/10/19 03:58:50;;;;;;;12.40;7.80;;;;;;;8.17;84.80;101342.48;88773;1277;81675;-68
2021/10/19 04:00:58;;;;;;;10.50;7.80;;;;;;;8.22;84.91;101339.52;88699;1277;82146;-66
2021/10/19 04:03:05;;;;;;;10.60;7.90;;;;;;;8.23;84.77;101342.96;88760;1277;98707;-69
2021/10/19 04:05:13;;;;;;;11.80;8.60;;;;;;;8.28;84.73;101341.74;88753;1276;89090;-68
2021/10/19 04:07:20;;;;;;;12.30;8.70;;;;;;;8.33;84.69;101342.06;88732;1277;93132;-70
2021/10/19 04:09:28;;;;;;;11.80;8.90;;;;;;;8.30;84.77;101337.23;88662;1277;82247;-70
2021/10/19 04:11:35;;;;;;;12.50;10.30;;;;;;;8.29;84.73;101342.23;88710;1278;81105;-64
2021/10/19 04:13:42;;;;;;;12.80;9.10;;;;;;;8.32;84.68;101341.36;88758;1277;97794;-63
2021/10/19 04:15:51;;;;;;;11.30;9.10;;;;;;;8.34;84.77;101338.45;88794;1277;88335;-63
2021/10/19 04:17:59;;;;;;;16.40;10.40;;;;;;;8.36;84.75;101336.55;88768;1275;94791;-68
2021/10/19 04:20:09;;;;;;;13.80;9.70;;;;;;;8.33;84.85;101336.08;88773;1278;81349;-69
2021/10/19 04:22:17;;;;;;;14.30;10.40;;;;;;;8.26;85.07;101337.95;88716;1278;82569;-63
2021/10/19 04:24:24;;;;;;;12.30;10.10;;;;;;;8.26;84.96;101339.92;88671;1277;98440;-64
2021/10/19 04:26:31;;;;;;;12.80;9.30;;;;;;;8.33;84.91;101337.52;88631;1278;88082;-64
2021/10/19 04:28:40;;;;;;;19.30;11.60;;;;;;;8.29;85.12;101333.02;88644;1277;94026;-62
2021/10/19 04:30:50;;;;;;;16.80;12.10;;;;;;;8.26;85.20;101330.23;88703;1278;81345;-63
2021/10/19 04:32:57;;;;;;;19.10;12.10;;;;;;;8.30;84.99;101331.71;88693;1277;82890;-66
2021/10/19 04:35:06;;;;;;;17.40;12.00;;;;;;;8.29;85.10;101333.72;88650;1278;98824;-67
2021/10/19 04:37:13;;;;;;;17.10;11.70;;;;;;;8.29;85.17;101333.38;88769;1278;87123;-67
2021/10/19 04:39:21;;;;;;;16.80;11.70;;;;;;;8.34;85.21;101334.55;88694;1277;94785;-68
2021/10/19 04:41:29;;;;;;;18.30;11.90;;;;;;;8.31;85.18;101338.58;88716;1277;81693;-67
2021/10/19 04:43:36;;;;;;;15.80;11.20;;;;;;;8.31;85.12;101341.08;88704;1277;81915;-68
2021/10/19 04:45:44;;;;;;;18.40;11.60;;;;;;;8.32;85.11;101347.15;88681;1277;98537;-69
2021/10/19 04:47:51;;;;;;;11.60;9.70;;;;;;;8.37;85.08;101349.17;88632;1277;88423;-68
2021/10/19 04:49:59;;;;;;;15.80;11.40;;;;;;;8.36;85.09;101350.31;88731;1278;95157;-74
2021/10/19 04:52:07;;;;;;;18.00;11.60;;;;;;;8.37;85.16;101347.54;88744;1276;80292;-67
2021/10/19 04:54:15;;;;;;;18.30;12.10;;;;;;;8.28;85.38;101349.34;88697;1278;80510;-66
2021/10/19 04:56:22;;;;;;;14.30;10.30;;;;;;;8.25;85.29;101351.23;88714;1277;98917;-62
2021/10/19 04:58:30;;;;;;;15.20;11.20;;;;;;;8.23;85.30;101350.45;88775;1277;89133;-62
2021/10/19 05:00:43;;;;;;;15.40;11.30;;;;;;;8.25;85.35;101356.89;88766;1278;93074;-62
2021/10/19 05:02:55;;;;;;;17.20;12.30;;;;;;;8.29;85.22;101355.69;88893;1275;81303;-67
2021/10/19 05:05:03;;;;;;;14.90;10.50;;;;;;;8.29;85.22;101354.40;88913;1274;82990;-67
2021/10/19 05:07:11;;;;;;;16.80;10.40;;;;;;;8.31;85.20;101357.46;88910;1275;99933;-62
2021/10/19 05:09:25;;;;;;;15.00;11.50;;;;;;;8.37;85.13;101354.19;88885;1275;88447;-63
2021/10/19 05:11:35;;;;;;;13.20;10.50;;;;;;;8.39;85.07;101362.39;88775;1278;92915;-67
2021/10/19 05:13:43;;;;;;;15.30;10.80;;;;;;;8.37;85.15;101362.84;88851;1275;78585;-66
2021/10/19 05:15:51;;;;;;;12.20;9.30;;;;;;;8.36;85.28;101365.28;88829;1275;82007;-68
2021/10/19 05:17:59;;;;;;;14.80;10.30;;;;;;;8.26;85.41;101363.27;88857;1275;98757;-69
2021/10/19 05:20:09;;;;;;;13.90;9.10;;;;;;;8.28;85.39;101367.76;88862;1274;87041;-68
2021/10/19 05:22:17;;;;;;;12.30;9.80;;;;;;;8.27;85.43;101361.04;88846;1275;94416;-68
2021/10/19 05:24:27;;;;;;;13.60;9.10;;;;;;;8.29;85.55;101359.60;88822;1273;77962;-69
2021/10/19 05:26:35;;;;;;;16.20;10.00;;;;;;;8.24;85.71;101361.67;88850;1275;82561;-64
2021/10/19 05:28:42;;;;;;;14.40;10.10;;;;;;;8.29;85.46;101364.06;88835;1275;99202;-63
2021/10/19 05:30:53;;;;;;;13.80;9.00;;;;;;;8.31;85.53;101367.35;88827;1275;86577;-63
2021/10/19 05:33:04;;;;;;;15.20;9.70;;;;;;;8.31;85.53;101371.33;88903;1274;94690;-65
2021/10/19 05:35:15;;;;;;;10.60;8.50;;;;;;;8.27;85.63;101371.84;88886;1275;79940;-65
2021/10/19 05:37:25;;;;;;;13.70;9.70;;;;;;;8.22;85.81;101369.41;88899;1275;82563;-65
2021/10/19 05:39:36;;;;;;;15.00;9.70;;;;;;;8.22;85.66;101366.86;88933;1275;99278;-64
2021/10/19 05:41:44;;;;;;;13.20;9.50;;;;;;;8.25;85.77;101369.12;88919;1272;89287;-68
2021/10/19 05:43:54;;;;;;;12.20;10.20;;;;;;;8.32;85.57;101370.98;88927;1275;93992;-69
2021/10/19 05:46:05;;;;;;;14.50;11.20;;;;;;;8.38;85.60;101373.80;88946;1274;78582;-66
2021/10/19 05:48:12;;;;;;;14.70;9.80;;;;;;;8.42;85.67;101378.55;88921;1273;82319;-65
2021/10/19 05:50:20;;;;;;;15.10;10.30;;;;;;;8.46;85.60;101375.33;88939;1275;98992;-68
2021/10/19 05:52:28;;;;;;;11.90;10.20;;;;;;;8.45;85.68;101374.01;88940;1275;86805;-68
2021/10/19 05:54:35;;;;;;;13.70;9.90;;;;;;;8.48;85.54;101371.92;88945;1274;95527;-69
2021/10/19 05:56:43;;;;;;;14.20;11.00;;;;;;;8.49;85.63;101372.33;88950;1274;79093;-65
2021/10/19 05:58:50;;;;;;;12.40;9.80;;;;;;;8.54;85.60;101374.69;88925;1275;82536;-65
2021/10/19 06:00:58;;;;;;;14.10;9.50;;;;;;;8.53;85.53;101374.26;88896;1275;97640;-66
2021/10/19 06:03:06;;;;;;;15.20;10.70;;;;;;;8.56;85.54;101372.58;88942;1273;89177;-64
2021/10/19 06:05:13;;;;;;;15.30;10.60;;;;;;;8.59;85.47;101365.73;88917;1274;94947;-65
2021/10/19 06:07:21;;;;;;;12.70;10.30;;;;;;;8.60;85.55;101366.40;88875;1272;78450;-64
2021/10/19 06:09:32;;;;;;;12.30;10.00;;;;;;;8.63;85.46;101363.16;88929;1275;81376;-63
2021/10/19 06:11:39;;;;;;;13.30;9.70;;;;;;;8.68;85.45;101360.69;88889;1274;99129;-69
2021/10/19 06:13:50;;;;;;;12.80;9.70;;;;;;;8.71;85.40;101359.64;88869;1274;87463;-69
2021/10/19 06:15:58;;;;;;;13.80;10.40;;;;;;;8.76;85.41;101360.99;88813;1275;93597;-63
2021/10/19 06:18:05;;;;;;;14.40;9.60;;;;;;;8.83;85.34;101363.17;88897;1275;79453;-63
2021/10/19 06:20:14;;;;;;;11.80;9.10;;;;;;;8.84;85.30;101366.78;88867;1274;82470;-62
2021/10/19 06:22:24;;;;;;;11.90;9.80;;;;;;;8.84;85.35;101367.48;88848;1274;99271;-63
2021/10/19 06:24:32;;;;;;;12.60;9.70;;;;;;;8.87;85.33;101366.24;88845;1275;87862;-64
2021/10/19 06:26:40;;;;;;;13.20;9.30;;;;;;;8.89;85.29;101371.35;88855;1274;94768;-69
2021/10/19 06:28:48;;;;;;;12.20;9.30;;;;;;;8.91;85.23;101368.44;88896;1275;80899;-69
2021/10/19 06:30:58;;;;;;;13.20;9.50;;;;;;;8.92;85.22;101370.84;88844;1275;83004;-68
2021/10/19 06:33:05;;;;;;;11.30;9.20;;;;;;;8.96;85.19;101371.34;88857;1275;99928;-69
2021/10/19 06:35:16;;;;;;;12.50;9.60;;;;;;;8.92;85.33;101374.44;87941;1274;1215870;-68
2021/10/19 06:37:23;;;;;;;12.60;9.30;;;;;;;8.93;85.24;101375.87;88840;1274;93897;-68
2021/10/19 06:39:31;;;;;;;18.70;14.50;;;;;;;8.91;85.25;101376.02;88871;1275;80525;-67
2021/10/19 06:41:41;;;;;;;19.80;14.40;;;;;;;8.89;85.27;101372.86;88897;1275;80894;-68
2021/10/19 06:43:49;;;;;;;12.50;10.70;;;;;;;8.86;85.41;101376.31;88916;1275;99516;-69
2021/10/19 06:45:59;;;;;;;12.30;10.10;;;;;;;8.79;85.51;101376.24;88865;1275;87537;-66
2021/10/19 06:48:10;;;;;;;12.10;9.40;;;;;;;8.80;85.48;101379.92;88802;1275;94963;-68
2021/10/19 06:50:17;;;;;;;11.70;9.20;;;;;;;8.84;85.56;101380.57;88803;1275;81492;-68
2021/10/19 06:52:29;;;;;;;13.10;10.00;;;;;;;8.89;85.47;101384.46;88915;1275;81255;-69
2021/10/19 06:54:39;;;;;;;11.60;9.60;;;;;;;8.90;85.54;101378.20;88926;1275;98924;-69
2021/10/19 06:56:47;;;;;;;12.80;9.70;;;;;;;8.97;85.56;101373.27;88932;1275;88574;-63
2021/10/19 06:58:55;;;;;;;14.60;11.00;;;;;;;9.01;85.53;101374.45;88848;1275;93112;-63
2021/10/19 07:01:05;;;;;;;12.60;9.40;;;;;;;9.08;85.48;101374.04;88854;1269;81403;-68
2021/10/19 07:03:13;;;;;;;13.40;9.80;;;;;;;9.05;85.53;101371.52;88780;1277;80536;-70
2021/10/19 07:05:21;;;;;;;11.90;9.80;;;;;;;9.09;85.53;101372.58;88717;1277;98684;-70
2021/10/19 07:07:29;;;;;;;15.50;11.10;;;;;;;9.15;85.40;101369.02;88756;1277;86996;-70
2021/10/19 07:09:41;;;;;;;13.00;10.70;;;;;;;9.21;85.43;101373.79;88690;1277;94902;-69
2021/10/19 07:11:52;;;;;;;15.90;11.70;;;;;;;9.28;85.45;101378.81;88704;1275;80725;-65
2021/10/19 07:14:02;;;;;;;13.20;10.80;;;;;;;9.29;85.30;101377.83;88767;1272;80686;-64
2021/10/19 07:16:10;;;;;;;14.00;11.10;;;;;;;9.35;85.32;101379.20;88809;1278;97963;-62
2021/10/19 07:18:18;;;;;;;18.50;11.60;;;;;;;9.35;85.31;101374.99;88731;1278;88538;-64
2021/10/19 07:20:26;;;;;;;12.80;10.70;;;;;;;9.37;85.37;101369.59;88686;1277;94938;-64
2021/10/19 07:22:33;;;;;;;13.40;11.50;;;;;;;9.44;85.38;101366.02;88719;1277;81513;-68
2021/10/19 07:24:44;;;;;;;14.10;10.70;;;;;;;9.46;85.42;101364.30;88744;1276;82190;-68
2021/10/19 07:26:51;;;;;;;12.70;11.30;;;;;;;9.46;85.36;101359.88;88722;1277;98708;-69
2021/10/19 07:29:02;;;;;;;14.90;11.30;;;;;;;9.50;85.31;101357.40;88742;1277;87610;-68
2021/10/19 07:31:12;;;;;;;16.10;12.00;;;;;;;9.52;85.29;101356.00;88725;1277;92488;-64
2021/10/19 07:33:23;;;;;;;16.40;12.60;;;;;;;9.49;85.35;101359.21;88726;1277;79351;-65
2021/10/19 07:35:33;;;;;;;18.20;12.30;;;;;;;9.50;85.39;101351.70;88738;1277;81433;-64
2021/10/19 07:37:42;;;;;;;16.30;11.40;;;;;;;9.57;85.34;101350.05;88720;1276;99268;-63
2021/10/19 07:39:49;;;;;;;21.10;11.90;;;;;;;9.69;85.31;101351.67;88678;1277;86707;-63
2021/10/19 07:41:59;;;;;;;15.20;12.00;;;;;;;9.77;85.28;101350.14;88626;1278;95383;-67
2021/10/19 07:44:10;;;;;;;17.10;12.00;;;;;;;9.83;85.30;101352.16;88698;1277;79653;-67
2021/10/19 07:46:18;;;;;;;22.10;13.20;;;;;;;9.83;85.30;101354.88;88748;1277;81448;-67
2021/10/19 07:48:28;;;;;;;22.40;12.60;;;;;;;9.90;85.25;101357.86;88724;1278;98861;-67
2021/10/19 07:50:35;;;;;;;16.00;12.30;;;;;;;9.96;85.08;101354.20;88742;1275;88324;-68
2021/10/19 07:52:43;;;;;;;15.30;12.00;;;;;;;10.04;84.98;101354.64;88767;1277;94596;-68
2021/10/19 07:54:51;;;;;;;17.70;13.00;;;;;;;10.12;84.97;101352.58;88728;1277;79258;-68
2021/10/19 07:56:58;;;;;;;16.80;12.60;;;;;;;10.18;84.94;101351.02;88741;1276;82266;-64
2021/10/19 07:59:06;;;;;;;19.80;14.10;;;;;;;10.23;84.94;101351.21;88689;1277;99411;-61
2021/10/19 08:01:13;;;;;;;19.30;13.40;;;;;;;10.24;84.93;101355.43;88689;1275;87330;-62
2021/10/19 08:03:21;;;;;;;21.70;13.90;;;;;;;10.23;84.85;101353.73;88831;1274;94455;-65
2021/10/19 08:05:29;;;;;;;22.30;15.00;;;;;;;10.22;84.88;101352.85;88781;1274;81007;-61
2021/10/19 08:07:37;;;;;;;23.30;15.00;;;;;;;10.25;84.90;101355.42;88865;1275;82217;-67
2021/10/19 08:09:44;;;;;;;21.90;14.80;;;;;;;10.27;84.95;101356.70;88840;1274;99811;-67
2021/10/19 08:11:55;;;;;;;24.50;14.90;;;;;;;10.33;84.96;101355.85;88883;1274;87436;-64
2021/10/19 08:14:03;;;;;;;20.80;14.60;;;;;;;10.37;85.03;101355.94;88839;1275;94824;-63
2021/10/19 08:16:11;;;;;;;22.40;15.80;;;;;;;10.48;84.93;101357.77;88852;1274;81943;-63
2021/10/19 08:18:18;;;;;;;21.50;14.60;;;;;;;10.57;84.83;101356.23;88891;1275;81652;-63
2021/10/19 08:20:26;;;;;;;20.70;13.70;;;;;;;10.69;84.86;101361.08;88633;1277;99264;-63
2021/10/19 08:22:35;;;;;;;26.10;16.70;;;;;;;10.70;84.78;101360.57;88901;1275;88467;-63
2021/10/19 08:24:43;;;;;;;26.10;15.90;;;;;;;10.81;84.78;101362.67;88908;1275;95272;-64
2021/10/19 08:26:50;;;;;;;24.90;16.90;;;;;;;10.89;84.72;101358.73;88752;1277;81140;-67
2021/10/19 08:29:02;;;;;;;22.60;15.00;;;;;;;10.94;84.68;101366.20;88905;1275;82160;-67
2021/10/19 08:31:10;;;;;;;20.90;14.80;;;;;;;11.01;84.67;101361.11;88919;1274;99318;-63
2021/10/19 08:33:21;;;;;;;21.30;15.70;;;;;;;11.06;84.56;101359.45;88872;1275;88930;-65
2021/10/19 08:35:31;;;;;;;22.00;15.60;;;;;;;11.14;84.48;101357.52;88811;1275;94714;-64
2021/10/19 08:37:42;;;;;;;21.50;15.70;;;;;;;11.21;84.39;101354.77;88944;1274;80479;-68
2021/10/19 08:39:50;;;;;;;25.80;16.50;;;;;;;11.31;84.36;101349.20;88807;1274;81151;-67
2021/10/19 08:41:57;;;;;;;21.90;16.20;;;;;;;11.34;84.34;101347.42;88864;1275;99204;-63
2021/10/19 08:44:08;;;;;;;19.70;16.00;;;;;;;11.39;84.31;101351.52;88830;1274;88802;-62
2021/10/19 08:46:18;;;;;;;22.20;17.00;;;;;;;11.52;84.31;101352.67;88895;1275;94928;-67
2021/10/19 08:48:26;;;;;;;22.70;17.00;;;;;;;11.62;83.87;101354.75;88896;1275;80200;-67
2021/10/19 08:50:34;;;;;;;21.10;16.60;;;;;;;11.72;83.85;101358.69;88824;1275;80642;-68
2021/10/19 08:52:42;;;;;;;22.90;16.60;;;;;;;11.81;83.83;101365.10;88786;1275;99599;-70
2021/10/19 08:54:52;;;;;;;21.50;16.40;;;;;;;11.84;83.90;101363.84;88755;1276;89242;-66
2021/10/19 08:57:03;;;;;;;23.90;18.30;;;;;;;11.93;83.65;101363.15;88873;1274;93161;-67
2021/10/19 08:59:12;;;;;;;21.50;17.30;;;;;;;12.01;83.52;101360.44;88940;1275;79048;-67
2021/10/19 09:01:20;;;;;;;22.40;16.50;;;;;;;12.10;83.45;101357.10;88919;1274;80905;-65
2021/10/19 09:03:27;;;;;;;24.70;17.60;;;;;;;12.16;83.50;101362.55;88894;1275;99608;-67
2021/10/19 09:05:35;;;;;;;24.40;17.50;;;;;;;12.27;83.40;101363.59;88913;1274;88283;-68
2021/10/19 09:07:51;;;;;;;24.30;17.10;;;;;;;12.38;83.29;101359.87;88889;1273;94911;-63
2021/10/19 09:09:59;;;;;;;21.90;17.60;;;;;;;12.39;83.00;101361.20;88823;1274;78104;-62
2021/10/19 09:12:08;;;;;;;24.10;18.10;;;;;;;12.41;82.86;101356.81;88818;1274;81548;-63
2021/10/19 09:14:19;;;;;;;22.20;17.40;;;;;;;12.46;82.72;101356.11;88944;1275;97366;-63
2021/10/19 09:16:43;;;;;;;22.20;17.50;;;;;;;12.36;82.59;101356.13;88867;1274;88033;-63
2021/10/19 09:19:02;;;;;;;23.30;18.20;;;;;;;12.43;82.59;101357.38;88831;1274;94160;-63
2021/10/19 09:21:09;;;;;;;25.50;19.20;;;;;;;12.56;82.48;101361.88;88864;1275;81885;-63
2021/10/19 09:23:21;;;;;;;22.80;17.10;;;;;;;12.74;82.44;101360.78;88917;1275;81989;-63
2021/10/19 09:25:35;;;;;;;22.50;19.00;;;;;;;12.89;82.27;101360.06;88922;1275;97453;-63
2021/10/19 09:27:46;;;;;;;;;;;;;;;13.07;82.05;101356.64;88959;1275;89658;-63
2021/10/19 09:29:54;;;;;;;22.90;18.30;;;;;;;13.15;81.96;101352.27;88927;1275;95321;-62
2021/10/19 09:32:06;;;;;;;23.10;17.80;;;;;;;13.21;81.94;101351.89;88770;1276;79888;-66
2021/10/19 09:34:15;;;;;;;21.80;18.20;;;;;;;13.37;81.71;101349.70;88933;1275;80369;-67
2021/10/19 09:36:36;;;;;;;22.20;16.90;;;;;;;13.49;81.47;101348.63;88921;1275;97869;-66
2021/10/19 09:38:51;;;;;;;23.10;17.10;;;;;;;13.44;80.96;101345.83;88766;1277;87059;-66
2021/10/19 09:41:02;;;;;;;21.60;17.40;;;;;;;13.49;81.07;101336.86;88911;1275;94915;-65
2021/10/19 09:43:14;;;;;;;24.20;17.50;;;;;;;13.68;80.93;101328.28;88900;1272;78377;-65
2021/10/19 09:45:26;;;;;;;22.60;17.90;;;;;;;13.91;81.09;101320.46;88827;1275;81628;-63
2021/10/19 09:47:37;;;;;;;19.80;16.90;;;;;;;14.13;80.85;101314.81;88754;1277;97983;-64
2021/10/19 09:49:47;;;;;;;20.60;17.40;;;;;;;14.42;80.80;101314.94;88801;1274;87379;-63
2021/10/19 09:51:56;;;;;;;21.00;17.10;;;;;;;14.53;80.20;101317.36;88853;1275;94664;-64
2021/10/19 09:54:06;;;;;;;22.30;17.60;;;;;;;14.64;79.97;101314.18;88846;1275;79970;-65